sensor_id;sensor_type;location;lat;lon;timestamp;temperature;humidity
11229;DHT22;5671;47.936;8.716;2022-12-29T00:01:30;0.50;97.50
11229;DHT22;5671;47.936;8.716;2022-12-29T00:03:57;0.60;97.50
11229;DHT22;5671;47.936;8.716;2022-12-29T00:06:24;0.90;97.50
11229;DHT22;5671;47.936;8.716;2022-12-29T00:08:51;1.00;97.20
11229;DHT22;5671;47.936;8.716;2022-12-29T00:11:21;1.00;96.90
11229;DHT22;5671;47.936;8.716;2022-12-29T00:13:48;1.20;96.60
11229;DHT22;5671;47.936;8.716;2022-12-29T00:16:35;1.30;96.00
11229;DHT22;5671;47.936;8.716;2022-12-29T00:19:03;1.40;95.20
11229;DHT22;5671;47.936;8.716;2022-12-29T00:21:30;1.50;94.50
11229;DHT22;5671;47.936;8.716;2022-12-29T00:24:16;1.60;93.60
11229;DHT22;5671;47.936;8.716;2022-12-29T00:27:11;1.80;92.50
11229;DHT22;5671;47.936;8.716;2022-12-29T00:29:56;1.80;91.70
11229;DHT22;5671;47.936;8.716;2022-12-29T00:32:42;1.80;90.80
11229;DHT22;5671;47.936;8.716;2022-12-29T00:35:29;1.90;90.40
11229;DHT22;5671;47.936;8.716;2022-12-29T00:38:00;1.90;90.10
11229;DHT22;5671;47.936;8.716;2022-12-29T00:40:46;1.90;89.80
11229;DHT22;5671;47.936;8.716;2022-12-29T00:43:38;2.00;89.30
11229;DHT22;5671;47.936;8.716;2022-12-29T00:46:22;2.10;89.10
11229;DHT22;5671;47.936;8.716;2022-12-29T00:48:51;2.20;88.60
11229;DHT22;5671;47.936;8.716;2022-12-29T00:51:35;2.20;88.50
11229;DHT22;5671;47.936;8.716;2022-12-29T00:54:01;2.30;88.40
11229;DHT22;5671;47.936;8.716;2022-12-29T00:56:28;2.30;88.10
11229;DHT22;5671;47.936;8.716;2022-12-29T00:58:55;2.30;88.40
11229;DHT22;5671;47.936;8.716;2022-12-29T01:01:26;2.30;88.60
11229;DHT22;5671;47.936;8.716;2022-12-29T01:03:54;2.30;88.50
11229;DHT22;5671;47.936;8.716;2022-12-29T01:06:21;2.20;88.40
11229;DHT22;5671;47.936;8.716;2022-12-29T01:08:48;2.20;88.40
11229;DHT22;5671;47.936;8.716;2022-12-29T01:11:35;2.10;88.20
11229;DHT22;5671;47.936;8.716;2022-12-29T01:14:00;2.10;88.30
11229;DHT22;5671;47.936;8.716;2022-12-29T01:16:27;2.10;88.30
11229;DHT22;5671;47.936;8.716;2022-12-29T01:18:56;2.00;88.20
11229;DHT22;5671;47.936;8.716;2022-12-29T01:21:23;1.90;88.00
11229;DHT22;5671;47.936;8.716;2022-12-29T01:23:49;2.00;88.00
11229;DHT22;5671;47.936;8.716;2022-12-29T01:26:17;1.90;88.30
11229;DHT22;5671;47.936;8.716;2022-12-29T01:28:45;1.90;88.50
11229;DHT22;5671;47.936;8.716;2022-12-29T01:31:13;1.80;88.80
11229;DHT22;5671;47.936;8.716;2022-12-29T01:33:40;1.80;89.10
11229;DHT22;5671;47.936;8.716;2022-12-29T01:36:12;1.70;89.00
11229;DHT22;5671;47.936;8.716;2022-12-29T01:38:40;1.70;89.30
11229;DHT22;5671;47.936;8.716;2022-12-29T01:41:09;1.70;89.60
11229;DHT22;5671;47.936;8.716;2022-12-29T01:43:41;1.60;89.60
11229;DHT22;5671;47.936;8.716;2022-12-29T01:46:19;1.60;89.90
11229;DHT22;5671;47.936;8.716;2022-12-29T01:48:51;1.60;90.20
11229;DHT22;5671;47.936;8.716;2022-12-29T01:51:22;1.60;90.20
11229;DHT22;5671;47.936;8.716;2022-12-29T01:53:49;1.60;90.30
11229;DHT22;5671;47.936;8.716;2022-12-29T01:56:18;1.60;90.30
11229;DHT22;5671;47.936;8.716;2022-12-29T01:58:48;1.50;90.30
11229;DHT22;5671;47.936;8.716;2022-12-29T02:01:19;1.50;90.60
11229;DHT22;5671;47.936;8.716;2022-12-29T02:03:48;1.50;90.70
11229;DHT22;5671;47.936;8.716;2022-12-29T02:06:19;1.50;90.70
11229;DHT22;5671;47.936;8.716;2022-12-29T02:08:50;1.50;90.90
11229;DHT22;5671;47.936;8.716;2022-12-29T02:11:17;1.50;90.90
11229;DHT22;5671;47.936;8.716;2022-12-29T02:13:44;1.50;91.00
11229;DHT22;5671;47.936;8.716;2022-12-29T02:16:29;1.50;91.00
11229;DHT22;5671;47.936;8.716;2022-12-29T02:19:16;1.50;91.00
11229;DHT22;5671;47.936;8.716;2022-12-29T02:22:05;1.50;91.00
11229;DHT22;5671;47.936;8.716;2022-12-29T02:25:02;1.50;91.00
11229;DHT22;5671;47.936;8.716;2022-12-29T02:27:43;1.50;91.10
11229;DHT22;5671;47.936;8.716;2022-12-29T02:30:37;1.50;91.20
11229;DHT22;5671;47.936;8.716;2022-12-29T02:33:13;1.50;91.10
11229;DHT22;5671;47.936;8.716;2022-12-29T02:35:53;1.50;91.10
11229;DHT22;5671;47.936;8.716;2022-12-29T02:38:44;1.50;91.10
11229;DHT22;5671;47.936;8.716;2022-12-29T02:41:21;1.40;91.20
11229;DHT22;5671;47.936;8.716;2022-12-29T02:43:54;1.40;91.20
11229;DHT22;5671;47.936;8.716;2022-12-29T02:46:31;1.40;91.10
11229;DHT22;5671;47.936;8.716;2022-12-29T02:49:06;1.40;90.90
11229;DHT22;5671;47.936;8.716;2022-12-29T02:51:41;1.30;90.70
11229;DHT22;5671;47.936;8.716;2022-12-29T02:54:10;1.30;90.80
11229;DHT22;5671;47.936;8.716;2022-12-29T02:56:54;1.30;91.00
11229;DHT22;5671;47.936;8.716;2022-12-29T02:59:21;1.20;91.10
11229;DHT22;5671;47.936;8.716;2022-12-29T03:02:05;1.20;91.20
11229;DHT22;5671;47.936;8.716;2022-12-29T03:05:06;1.20;91.20
11229;DHT22;5671;47.936;8.716;2022-12-29T03:07:44;1.40;91.30
11229;DHT22;5671;47.936;8.716;2022-12-29T03:10:25;1.50;90.70
11229;DHT22;5671;47.936;8.716;2022-12-29T03:13:01;1.70;90.10
11229;DHT22;5671;47.936;8.716;2022-12-29T03:15:52;1.80;89.40
11229;DHT22;5671;47.936;8.716;2022-12-29T03:18:45;2.00;88.50
11229;DHT22;5671;47.936;8.716;2022-12-29T03:21:17;2.30;86.60
11229;DHT22;5671;47.936;8.716;2022-12-29T03:23:45;2.50;85.50
11229;DHT22;5671;47.936;8.716;2022-12-29T03:26:16;2.60;84.90
11229;DHT22;5671;47.936;8.716;2022-12-29T03:28:47;2.70;84.50
11229;DHT22;5671;47.936;8.716;2022-12-29T03:31:18;2.80;83.30
11229;DHT22;5671;47.936;8.716;2022-12-29T03:33:47;2.90;83.50
11229;DHT22;5671;47.936;8.716;2022-12-29T03:36:20;3.00;83.40
11229;DHT22;5671;47.936;8.716;2022-12-29T03:38:55;3.00;83.10
11229;DHT22;5671;47.936;8.716;2022-12-29T03:41:27;3.10;83.00
11229;DHT22;5671;47.936;8.716;2022-12-29T03:43:55;3.00;83.40
11229;DHT22;5671;47.936;8.716;2022-12-29T03:46:21;3.20;81.30
11229;DHT22;5671;47.936;8.716;2022-12-29T03:48:50;3.50;79.50
11229;DHT22;5671;47.936;8.716;2022-12-29T03:51:17;3.40;81.00
11229;DHT22;5671;47.936;8.716;2022-12-29T03:53:43;3.40;82.00
11229;DHT22;5671;47.936;8.716;2022-12-29T03:56:10;3.40;82.40
11229;DHT22;5671;47.936;8.716;2022-12-29T03:58:37;3.40;80.70
11229;DHT22;5671;47.936;8.716;2022-12-29T04:01:04;3.40;82.40
11229;DHT22;5671;47.936;8.716;2022-12-29T04:03:31;3.30;82.70
11229;DHT22;5671;47.936;8.716;2022-12-29T04:06:00;3.30;83.40
11229;DHT22;5671;47.936;8.716;2022-12-29T04:08:26;3.20;81.90
11229;DHT22;5671;47.936;8.716;2022-12-29T04:10:53;3.20;82.20
11229;DHT22;5671;47.936;8.716;2022-12-29T04:13:20;3.10;82.60
11229;DHT22;5671;47.936;8.716;2022-12-29T04:15:47;3.10;82.90
11229;DHT22;5671;47.936;8.716;2022-12-29T04:18:14;3.00;83.70
11229;DHT22;5671;47.936;8.716;2022-12-29T04:20:41;3.00;81.50
11229;DHT22;5671;47.936;8.716;2022-12-29T04:23:30;3.10;81.60
11229;DHT22;5671;47.936;8.716;2022-12-29T04:25:57;3.00;82.90
11229;DHT22;5671;47.936;8.716;2022-12-29T04:28:25;3.00;83.20
11229;DHT22;5671;47.936;8.716;2022-12-29T04:30:52;2.90;83.30
11229;DHT22;5671;47.936;8.716;2022-12-29T04:33:19;2.90;83.50
11229;DHT22;5671;47.936;8.716;2022-12-29T04:35:47;2.90;83.00
11229;DHT22;5671;47.936;8.716;2022-12-29T04:38:14;2.90;83.40
11229;DHT22;5671;47.936;8.716;2022-12-29T04:40:43;2.80;82.60
11229;DHT22;5671;47.936;8.716;2022-12-29T04:43:10;2.80;83.50
11229;DHT22;5671;47.936;8.716;2022-12-29T04:45:37;2.70;83.00
11229;DHT22;5671;47.936;8.716;2022-12-29T04:48:05;2.70;82.90
11229;DHT22;5671;47.936;8.716;2022-12-29T04:50:32;2.70;83.00
11229;DHT22;5671;47.936;8.716;2022-12-29T04:52:59;2.70;83.20
11229;DHT22;5671;47.936;8.716;2022-12-29T04:55:26;2.60;83.70
11229;DHT22;5671;47.936;8.716;2022-12-29T04:57:54;2.50;83.70
11229;DHT22;5671;47.936;8.716;2022-12-29T05:00:21;2.50;84.20
11229;DHT22;5671;47.936;8.716;2022-12-29T05:02:48;2.50;84.80
11229;DHT22;5671;47.936;8.716;2022-12-29T05:05:15;2.50;84.50
11229;DHT22;5671;47.936;8.716;2022-12-29T05:07:42;2.60;85.20
11229;DHT22;5671;47.936;8.716;2022-12-29T05:10:10;2.60;85.00
11229;DHT22;5671;47.936;8.716;2022-12-29T05:12:38;2.50;85.00
11229;DHT22;5671;47.936;8.716;2022-12-29T05:15:08;2.60;85.20
11229;DHT22;5671;47.936;8.716;2022-12-29T05:17:35;2.60;85.00
11229;DHT22;5671;47.936;8.716;2022-12-29T05:20:03;2.60;84.50
11229;DHT22;5671;47.936;8.716;2022-12-29T05:22:29;2.60;85.20
11229;DHT22;5671;47.936;8.716;2022-12-29T05:24:56;2.60;85.60
11229;DHT22;5671;47.936;8.716;2022-12-29T05:27:23;2.60;85.90
11229;DHT22;5671;47.936;8.716;2022-12-29T05:29:50;2.70;85.80
11229;DHT22;5671;47.936;8.716;2022-12-29T05:32:19;2.80;85.50
11229;DHT22;5671;47.936;8.716;2022-12-29T05:34:45;2.80;85.50
11229;DHT22;5671;47.936;8.716;2022-12-29T05:37:12;2.80;85.60
11229;DHT22;5671;47.936;8.716;2022-12-29T05:39:39;2.80;85.60
11229;DHT22;5671;47.936;8.716;2022-12-29T05:42:06;2.90;85.70
11229;DHT22;5671;47.936;8.716;2022-12-29T05:44:33;2.90;85.90
11229;DHT22;5671;47.936;8.716;2022-12-29T05:47:00;2.80;85.40
11229;DHT22;5671;47.936;8.716;2022-12-29T05:49:28;2.80;85.40
11229;DHT22;5671;47.936;8.716;2022-12-29T05:51:55;2.80;85.30
11229;DHT22;5671;47.936;8.716;2022-12-29T05:54:22;2.70;85.00
11229;DHT22;5671;47.936;8.716;2022-12-29T05:56:49;2.70;85.20
11229;DHT22;5671;47.936;8.716;2022-12-29T05:59:15;2.60;85.40
11229;DHT22;5671;47.936;8.716;2022-12-29T06:01:42;2.60;85.70
11229;DHT22;5671;47.936;8.716;2022-12-29T06:04:09;2.60;86.00
11229;DHT22;5671;47.936;8.716;2022-12-29T06:06:37;2.60;86.40
11229;DHT22;5671;47.936;8.716;2022-12-29T06:09:05;2.50;86.90
11229;DHT22;5671;47.936;8.716;2022-12-29T06:11:32;2.50;86.90
11229;DHT22;5671;47.936;8.716;2022-12-29T06:14:00;2.50;86.90
11229;DHT22;5671;47.936;8.716;2022-12-29T06:16:27;2.50;86.90
11229;DHT22;5671;47.936;8.716;2022-12-29T06:18:53;2.50;87.00
11229;DHT22;5671;47.936;8.716;2022-12-29T06:21:20;2.50;87.00
11229;DHT22;5671;47.936;8.716;2022-12-29T06:23:49;2.50;87.20
11229;DHT22;5671;47.936;8.716;2022-12-29T06:26:16;2.50;87.30
11229;DHT22;5671;47.936;8.716;2022-12-29T06:28:42;2.50;87.30
11229;DHT22;5671;47.936;8.716;2022-12-29T06:31:09;2.40;87.30
11229;DHT22;5671;47.936;8.716;2022-12-29T06:33:37;2.40;87.40
11229;DHT22;5671;47.936;8.716;2022-12-29T06:36:04;2.40;87.60
11229;DHT22;5671;47.936;8.716;2022-12-29T06:38:31;2.40;87.60
11229;DHT22;5671;47.936;8.716;2022-12-29T06:40:59;2.40;87.80
11229;DHT22;5671;47.936;8.716;2022-12-29T06:43:26;2.40;87.90
11229;DHT22;5671;47.936;8.716;2022-12-29T06:45:53;2.40;88.00
11229;DHT22;5671;47.936;8.716;2022-12-29T06:48:20;2.30;87.80
11229;DHT22;5671;47.936;8.716;2022-12-29T06:50:46;2.30;87.90
11229;DHT22;5671;47.936;8.716;2022-12-29T06:53:13;2.30;88.00
11229;DHT22;5671;47.936;8.716;2022-12-29T06:55:41;2.30;88.00
11229;DHT22;5671;47.936;8.716;2022-12-29T06:58:10;2.30;88.30
11229;DHT22;5671;47.936;8.716;2022-12-29T07:00:36;2.30;88.60
11229;DHT22;5671;47.936;8.716;2022-12-29T07:03:03;2.30;88.40
11229;DHT22;5671;47.936;8.716;2022-12-29T07:05:30;2.30;88.60
11229;DHT22;5671;47.936;8.716;2022-12-29T07:07:58;2.30;88.70
11229;DHT22;5671;47.936;8.716;2022-12-29T07:10:25;2.30;88.60
11229;DHT22;5671;47.936;8.716;2022-12-29T07:12:52;2.30;88.80
11229;DHT22;5671;47.936;8.716;2022-12-29T07:15:20;2.30;88.80
11229;DHT22;5671;47.936;8.716;2022-12-29T07:17:47;2.20;89.00
11229;DHT22;5671;47.936;8.716;2022-12-29T07:20:15;2.20;88.80
11229;DHT22;5671;47.936;8.716;2022-12-29T07:22:42;2.20;88.70
11229;DHT22;5671;47.936;8.716;2022-12-29T07:25:09;2.20;88.70
11229;DHT22;5671;47.936;8.716;2022-12-29T07:27:36;2.20;88.70
11229;DHT22;5671;47.936;8.716;2022-12-29T07:30:04;2.10;88.60
11229;DHT22;5671;47.936;8.716;2022-12-29T07:32:34;2.10;88.70
11229;DHT22;5671;47.936;8.716;2022-12-29T07:35:12;2.00;88.60
11229;DHT22;5671;47.936;8.716;2022-12-29T07:37:39;1.90;88.70
11229;DHT22;5671;47.936;8.716;2022-12-29T07:40:08;1.90;89.10
11229;DHT22;5671;47.936;8.716;2022-12-29T07:42:35;1.90;89.40
11229;DHT22;5671;47.936;8.716;2022-12-29T07:45:05;1.90;89.50
11229;DHT22;5671;47.936;8.716;2022-12-29T07:47:41;2.00;90.10
11229;DHT22;5671;47.936;8.716;2022-12-29T07:50:08;2.00;90.20
11229;DHT22;5671;47.936;8.716;2022-12-29T07:52:35;2.00;90.50
11229;DHT22;5671;47.936;8.716;2022-12-29T07:55:02;2.00;90.50
11229;DHT22;5671;47.936;8.716;2022-12-29T07:57:29;2.00;90.70
11229;DHT22;5671;47.936;8.716;2022-12-29T07:59:56;2.10;90.90
11229;DHT22;5671;47.936;8.716;2022-12-29T08:02:23;2.10;90.90
11229;DHT22;5671;47.936;8.716;2022-12-29T08:04:53;2.10;90.90
11229;DHT22;5671;47.936;8.716;2022-12-29T08:07:19;2.20;91.20
11229;DHT22;5671;47.936;8.716;2022-12-29T08:09:47;2.30;91.80
11229;DHT22;5671;47.936;8.716;2022-12-29T08:12:14;2.70;92.10
11229;DHT22;5671;47.936;8.716;2022-12-29T08:14:41;2.80;91.60
11229;DHT22;5671;47.936;8.716;2022-12-29T08:17:07;3.10;91.20
11229;DHT22;5671;47.936;8.716;2022-12-29T08:19:35;3.10;90.60
11229;DHT22;5671;47.936;8.716;2022-12-29T08:22:09;3.40;90.10
11229;DHT22;5671;47.936;8.716;2022-12-29T08:24:36;3.60;89.30
11229;DHT22;5671;47.936;8.716;2022-12-29T08:27:03;3.60;89.00
11229;DHT22;5671;47.936;8.716;2022-12-29T08:29:30;3.80;88.60
11229;DHT22;5671;47.936;8.716;2022-12-29T08:31:59;3.80;88.30
11229;DHT22;5671;47.936;8.716;2022-12-29T08:34:26;3.90;88.00
11229;DHT22;5671;47.936;8.716;2022-12-29T08:36:53;4.00;87.80
11229;DHT22;5671;47.936;8.716;2022-12-29T08:39:26;4.10;87.70
11229;DHT22;5671;47.936;8.716;2022-12-29T08:41:54;4.30;87.40
11229;DHT22;5671;47.936;8.716;2022-12-29T08:44:21;4.30;87.40
11229;DHT22;5671;47.936;8.716;2022-12-29T08:46:48;4.40;87.30
11229;DHT22;5671;47.936;8.716;2022-12-29T08:49:15;4.50;87.20
11229;DHT22;5671;47.936;8.716;2022-12-29T08:51:42;4.50;87.30
11229;DHT22;5671;47.936;8.716;2022-12-29T08:54:09;4.60;87.40
11229;DHT22;5671;47.936;8.716;2022-12-29T08:56:37;4.70;86.80
11229;DHT22;5671;47.936;8.716;2022-12-29T08:59:04;4.80;87.80
11229;DHT22;5671;47.936;8.716;2022-12-29T09:01:31;4.80;88.60
11229;DHT22;5671;47.936;8.716;2022-12-29T09:03:59;4.80;88.40
11229;DHT22;5671;47.936;8.716;2022-12-29T09:06:26;4.90;87.70
11229;DHT22;5671;47.936;8.716;2022-12-29T09:08:53;5.00;87.10
11229;DHT22;5671;47.936;8.716;2022-12-29T09:11:22;5.10;86.90
11229;DHT22;5671;47.936;8.716;2022-12-29T09:13:52;5.10;87.00
11229;DHT22;5671;47.936;8.716;2022-12-29T09:16:20;5.20;86.70
11229;DHT22;5671;47.936;8.716;2022-12-29T09:18:47;5.30;86.30
11229;DHT22;5671;47.936;8.716;2022-12-29T09:21:14;5.30;86.40
11229;DHT22;5671;47.936;8.716;2022-12-29T09:23:41;5.40;85.80
11229;DHT22;5671;47.936;8.716;2022-12-29T09:26:09;5.40;85.80
11229;DHT22;5671;47.936;8.716;2022-12-29T09:28:36;5.50;85.70
11229;DHT22;5671;47.936;8.716;2022-12-29T09:31:04;5.50;85.50
11229;DHT22;5671;47.936;8.716;2022-12-29T09:33:32;5.50;85.00
11229;DHT22;5671;47.936;8.716;2022-12-29T09:36:00;5.60;85.80
11229;DHT22;5671;47.936;8.716;2022-12-29T09:38:27;5.60;85.50
11229;DHT22;5671;47.936;8.716;2022-12-29T09:40:56;5.60;86.00
11229;DHT22;5671;47.936;8.716;2022-12-29T09:43:32;5.70;85.40
11229;DHT22;5671;47.936;8.716;2022-12-29T09:46:14;5.80;85.20
11229;DHT22;5671;47.936;8.716;2022-12-29T09:48:49;5.90;85.70
11229;DHT22;5671;47.936;8.716;2022-12-29T09:51:22;6.00;84.80
11229;DHT22;5671;47.936;8.716;2022-12-29T09:53:53;6.10;85.30
11229;DHT22;5671;47.936;8.716;2022-12-29T09:56:25;6.20;84.60
11229;DHT22;5671;47.936;8.716;2022-12-29T09:58:57;6.30;83.90
11229;DHT22;5671;47.936;8.716;2022-12-29T10:01:31;6.40;83.70
11229;DHT22;5671;47.936;8.716;2022-12-29T10:04:00;6.50;84.10
11229;DHT22;5671;47.936;8.716;2022-12-29T10:06:39;6.60;82.80
11229;DHT22;5671;47.936;8.716;2022-12-29T10:09:13;6.90;83.50
11229;DHT22;5671;47.936;8.716;2022-12-29T10:11:54;7.10;81.80
11229;DHT22;5671;47.936;8.716;2022-12-29T10:14:33;7.20;82.60
11229;DHT22;5671;47.936;8.716;2022-12-29T10:17:14;7.50;83.20
11229;DHT22;5671;47.936;8.716;2022-12-29T10:19:57;7.60;79.00
11229;DHT22;5671;47.936;8.716;2022-12-29T10:22:43;7.70;79.40
11229;DHT22;5671;47.936;8.716;2022-12-29T10:25:17;7.70;76.40
11229;DHT22;5671;47.936;8.716;2022-12-29T10:27:50;7.70;76.70
11229;DHT22;5671;47.936;8.716;2022-12-29T10:30:32;7.80;76.70
11229;DHT22;5671;47.936;8.716;2022-12-29T10:33:03;7.80;77.20
11229;DHT22;5671;47.936;8.716;2022-12-29T10:35:34;7.80;79.40
11229;DHT22;5671;47.936;8.716;2022-12-29T10:38:12;7.80;77.00
11229;DHT22;5671;47.936;8.716;2022-12-29T10:40:45;7.80;75.70
11229;DHT22;5671;47.936;8.716;2022-12-29T10:43:20;7.90;76.00
11229;DHT22;5671;47.936;8.716;2022-12-29T10:45:49;7.80;75.30
11229;DHT22;5671;47.936;8.716;2022-12-29T10:48:21;7.90;75.00
11229;DHT22;5671;47.936;8.716;2022-12-29T10:50:51;7.80;74.60
11229;DHT22;5671;47.936;8.716;2022-12-29T10:53:25;7.90;75.50
11229;DHT22;5671;47.936;8.716;2022-12-29T10:55:52;7.90;75.60
11229;DHT22;5671;47.936;8.716;2022-12-29T10:58:20;7.90;76.00
11229;DHT22;5671;47.936;8.716;2022-12-29T11:00:51;7.90;76.10
11229;DHT22;5671;47.936;8.716;2022-12-29T11:03:44;7.90;76.10
11229;DHT22;5671;47.936;8.716;2022-12-29T11:06:17;7.90;76.70
11229;DHT22;5671;47.936;8.716;2022-12-29T11:08:51;7.90;76.80
11229;DHT22;5671;47.936;8.716;2022-12-29T11:11:25;7.90;76.00
11229;DHT22;5671;47.936;8.716;2022-12-29T11:13:58;7.90;75.10
11229;DHT22;5671;47.936;8.716;2022-12-29T11:16:30;8.00;75.20
11229;DHT22;5671;47.936;8.716;2022-12-29T11:18:59;8.00;76.20
11229;DHT22;5671;47.936;8.716;2022-12-29T11:21:31;8.00;75.90
11229;DHT22;5671;47.936;8.716;2022-12-29T11:23:59;8.10;75.60
11229;DHT22;5671;47.936;8.716;2022-12-29T11:26:27;8.10;76.30
11229;DHT22;5671;47.936;8.716;2022-12-29T11:29:23;8.10;75.20
11229;DHT22;5671;47.936;8.716;2022-12-29T11:31:51;8.10;75.30
11229;DHT22;5671;47.936;8.716;2022-12-29T11:34:22;8.10;75.80
11229;DHT22;5671;47.936;8.716;2022-12-29T11:36:51;8.10;75.40
11229;DHT22;5671;47.936;8.716;2022-12-29T11:39:36;8.10;74.80
11229;DHT22;5671;47.936;8.716;2022-12-29T11:42:06;8.10;75.20
11229;DHT22;5671;47.936;8.716;2022-12-29T11:44:43;8.20;75.40
11229;DHT22;5671;47.936;8.716;2022-12-29T11:47:24;8.30;74.70
11229;DHT22;5671;47.936;8.716;2022-12-29T11:49:55;8.50;75.30
11229;DHT22;5671;47.936;8.716;2022-12-29T11:52:24;8.60;75.10
11229;DHT22;5671;47.936;8.716;2022-12-29T11:54:54;8.60;73.80
11229;DHT22;5671;47.936;8.716;2022-12-29T11:57:30;8.60;74.10
11229;DHT22;5671;47.936;8.716;2022-12-29T12:00:15;8.60;73.80
11229;DHT22;5671;47.936;8.716;2022-12-29T12:02:48;8.60;72.80
11229;DHT22;5671;47.936;8.716;2022-12-29T12:05:28;8.70;73.00
11229;DHT22;5671;47.936;8.716;2022-12-29T12:08:02;8.70;73.30
11229;DHT22;5671;47.936;8.716;2022-12-29T12:10:33;8.70;72.70
11229;DHT22;5671;47.936;8.716;2022-12-29T12:13:08;8.70;73.00
11229;DHT22;5671;47.936;8.716;2022-12-29T12:15:47;8.60;73.30
11229;DHT22;5671;47.936;8.716;2022-12-29T12:18:20;8.60;73.80
11229;DHT22;5671;47.936;8.716;2022-12-29T12:20:54;8.60;74.30
11229;DHT22;5671;47.936;8.716;2022-12-29T12:23:30;8.60;74.20
11229;DHT22;5671;47.936;8.716;2022-12-29T12:26:04;8.60;74.90
11229;DHT22;5671;47.936;8.716;2022-12-29T12:28:39;8.50;75.50
11229;DHT22;5671;47.936;8.716;2022-12-29T12:31:18;8.50;76.80
11229;DHT22;5671;47.936;8.716;2022-12-29T12:33:50;8.40;78.60
11229;DHT22;5671;47.936;8.716;2022-12-29T12:36:41;8.30;78.20
11229;DHT22;5671;47.936;8.716;2022-12-29T12:39:12;8.30;79.00
11229;DHT22;5671;47.936;8.716;2022-12-29T12:41:52;8.30;79.60
11229;DHT22;5671;47.936;8.716;2022-12-29T12:44:31;8.40;79.70
11229;DHT22;5671;47.936;8.716;2022-12-29T12:47:23;8.40;80.30
11229;DHT22;5671;47.936;8.716;2022-12-29T12:50:10;8.50;79.90
11229;DHT22;5671;47.936;8.716;2022-12-29T12:52:49;8.50;77.80
11229;DHT22;5671;47.936;8.716;2022-12-29T12:55:31;8.60;78.10
11229;DHT22;5671;47.936;8.716;2022-12-29T12:58:10;8.80;79.70
11229;DHT22;5671;47.936;8.716;2022-12-29T13:00:50;9.10;77.10
11229;DHT22;5671;47.936;8.716;2022-12-29T13:03:35;9.40;76.80
11229;DHT22;5671;47.936;8.716;2022-12-29T13:06:15;9.60;76.50
11229;DHT22;5671;47.936;8.716;2022-12-29T13:09:01;9.60;74.00
11229;DHT22;5671;47.936;8.716;2022-12-29T13:11:42;9.70;73.70
11229;DHT22;5671;47.936;8.716;2022-12-29T13:14:24;9.70;74.30
11229;DHT22;5671;47.936;8.716;2022-12-29T13:17:04;9.80;72.50
11229;DHT22;5671;47.936;8.716;2022-12-29T13:19:38;9.70;71.80
11229;DHT22;5671;47.936;8.716;2022-12-29T13:22:09;9.80;72.10
11229;DHT22;5671;47.936;8.716;2022-12-29T13:24:50;9.80;72.10
11229;DHT22;5671;47.936;8.716;2022-12-29T13:27:23;9.70;71.30
11229;DHT22;5671;47.936;8.716;2022-12-29T13:30:00;9.60;71.50
11229;DHT22;5671;47.936;8.716;2022-12-29T13:32:41;9.60;72.40
11229;DHT22;5671;47.936;8.716;2022-12-29T13:35:24;9.50;72.10
11229;DHT22;5671;47.936;8.716;2022-12-29T13:37:56;9.40;72.40
11229;DHT22;5671;47.936;8.716;2022-12-29T13:40:30;9.40;72.50
11229;DHT22;5671;47.936;8.716;2022-12-29T13:43:00;9.30;72.80
11229;DHT22;5671;47.936;8.716;2022-12-29T13:45:31;9.30;72.00
11229;DHT22;5671;47.936;8.716;2022-12-29T13:48:05;9.30;72.70
11229;DHT22;5671;47.936;8.716;2022-12-29T13:50:36;9.30;72.90
11229;DHT22;5671;47.936;8.716;2022-12-29T13:53:11;9.20;73.80
11229;DHT22;5671;47.936;8.716;2022-12-29T13:55:49;9.10;74.20
11229;DHT22;5671;47.936;8.716;2022-12-29T13:58:26;9.10;75.10
11229;DHT22;5671;47.936;8.716;2022-12-29T14:00:58;9.00;75.10
11229;DHT22;5671;47.936;8.716;2022-12-29T14:03:43;9.00;74.80
11229;DHT22;5671;47.936;8.716;2022-12-29T14:06:15;9.00;74.40
11229;DHT22;5671;47.936;8.716;2022-12-29T14:08:43;9.00;74.40
11229;DHT22;5671;47.936;8.716;2022-12-29T14:11:14;9.00;74.30
11229;DHT22;5671;47.936;8.716;2022-12-29T14:13:44;8.90;75.80
11229;DHT22;5671;47.936;8.716;2022-12-29T14:16:29;8.90;74.60
11229;DHT22;5671;47.936;8.716;2022-12-29T14:19:04;8.90;75.00
11229;DHT22;5671;47.936;8.716;2022-12-29T14:21:32;8.80;75.90
11229;DHT22;5671;47.936;8.716;2022-12-29T14:27:51;8.80;75.50
11229;DHT22;5671;47.936;8.716;2022-12-29T14:30:47;8.70;75.90
11229;DHT22;5671;47.936;8.716;2022-12-29T14:33:16;8.70;76.10
11229;DHT22;5671;47.936;8.716;2022-12-29T14:35:49;8.60;76.20
11229;DHT22;5671;47.936;8.716;2022-12-29T14:38:30;8.60;76.10
11229;DHT22;5671;47.936;8.716;2022-12-29T14:44:09;8.60;76.50
11229;DHT22;5671;47.936;8.716;2022-12-29T14:46:43;8.50;76.80
11229;DHT22;5671;47.936;8.716;2022-12-29T14:49:16;8.50;76.30
11229;DHT22;5671;47.936;8.716;2022-12-29T14:51:45;8.50;77.20
11229;DHT22;5671;47.936;8.716;2022-12-29T14:54:42;8.40;77.20
11229;DHT22;5671;47.936;8.716;2022-12-29T14:57:18;8.40;76.90
11229;DHT22;5671;47.936;8.716;2022-12-29T14:59:47;8.40;77.70
11229;DHT22;5671;47.936;8.716;2022-12-29T15:02:18;8.40;77.20
11229;DHT22;5671;47.936;8.716;2022-12-29T15:04:47;8.30;77.50
11229;DHT22;5671;47.936;8.716;2022-12-29T15:07:18;8.30;77.70
11229;DHT22;5671;47.936;8.716;2022-12-29T15:09:50;8.30;77.20
11229;DHT22;5671;47.936;8.716;2022-12-29T15:12:30;8.20;77.30
11229;DHT22;5671;47.936;8.716;2022-12-29T15:15:02;8.20;77.10
11229;DHT22;5671;47.936;8.716;2022-12-29T15:17:43;8.20;77.10
11229;DHT22;5671;47.936;8.716;2022-12-29T15:20:19;8.20;77.10
11229;DHT22;5671;47.936;8.716;2022-12-29T15:22:49;8.10;77.50
11229;DHT22;5671;47.936;8.716;2022-12-29T15:25:18;8.10;77.60
11229;DHT22;5671;47.936;8.716;2022-12-29T15:27:49;8.00;77.90
11229;DHT22;5671;47.936;8.716;2022-12-29T15:30:19;8.00;77.70
11229;DHT22;5671;47.936;8.716;2022-12-29T15:32:47;7.90;77.70
11229;DHT22;5671;47.936;8.716;2022-12-29T15:35:24;7.90;78.20
11229;DHT22;5671;47.936;8.716;2022-12-29T15:37:52;7.80;77.80
11229;DHT22;5671;47.936;8.716;2022-12-29T15:40:23;7.80;77.90
11229;DHT22;5671;47.936;8.716;2022-12-29T15:43:00;7.80;78.30
11229;DHT22;5671;47.936;8.716;2022-12-29T15:45:33;7.70;78.60
11229;DHT22;5671;47.936;8.716;2022-12-29T15:48:01;7.70;78.80
11229;DHT22;5671;47.936;8.716;2022-12-29T15:50:30;7.70;78.80
11229;DHT22;5671;47.936;8.716;2022-12-29T15:52:58;7.70;78.70
11229;DHT22;5671;47.936;8.716;2022-12-29T15:55:30;7.70;78.60
11229;DHT22;5671;47.936;8.716;2022-12-29T15:58:00;7.70;78.60
11229;DHT22;5671;47.936;8.716;2022-12-29T16:00:32;7.70;78.90
11229;DHT22;5671;47.936;8.716;2022-12-29T16:03:01;7.70;79.50
11229;DHT22;5671;47.936;8.716;2022-12-29T16:05:33;7.70;79.30
11229;DHT22;5671;47.936;8.716;2022-12-29T16:08:00;7.70;78.80
11229;DHT22;5671;47.936;8.716;2022-12-29T16:10:32;7.70;79.30
11229;DHT22;5671;47.936;8.716;2022-12-29T16:13:04;7.60;79.40
11229;DHT22;5671;47.936;8.716;2022-12-29T16:15:33;7.60;79.40
11229;DHT22;5671;47.936;8.716;2022-12-29T16:18:00;7.60;79.00
11229;DHT22;5671;47.936;8.716;2022-12-29T16:20:36;7.60;78.60
11229;DHT22;5671;47.936;8.716;2022-12-29T16:23:04;7.60;79.20
11229;DHT22;5671;47.936;8.716;2022-12-29T16:25:32;7.50;80.10
11229;DHT22;5671;47.936;8.716;2022-12-29T16:28:16;7.50;79.60
11229;DHT22;5671;47.936;8.716;2022-12-29T16:30:45;7.50;79.00
11229;DHT22;5671;47.936;8.716;2022-12-29T16:33:40;7.50;79.70
11229;DHT22;5671;47.936;8.716;2022-12-29T16:36:51;7.60;79.30
11229;DHT22;5671;47.936;8.716;2022-12-29T16:39:29;7.70;78.80
11229;DHT22;5671;47.936;8.716;2022-12-29T16:41:56;7.70;79.00